sensor_id;sensor_type;location;lat;lon;timestamp;P1;durP1;ratioP1;P2;durP2;ratioP2
12314;SDS011;23886;46.614;14.276;2023-06-10T00:01:57;8.90;;;8.10;;
12314;SDS011;23886;46.614;14.276;2023-06-10T00:04:24;8.30;;;7.57;;
12314;SDS011;23886;46.614;14.276;2023-06-10T00:06:52;8.43;;;7.63;;
12314;SDS011;23886;46.614;14.276;2023-06-10T00:09:19;8.60;;;7.73;;
12314;SDS011;23886;46.614;14.276;2023-06-10T00:11:46;9.43;;;8.53;;
12314;SDS011;23886;46.614;14.276;2023-06-10T00:14:13;9.53;;;8.63;;
12314;SDS011;23886;46.614;14.276;2023-06-10T00:16:42;8.97;;;8.17;;
12314;SDS011;23886;46.614;14.276;2023-06-10T00:19:10;8.73;;;7.93;;
12314;SDS011;23886;46.614;14.276;2023-06-10T00:21:39;8.53;;;7.70;;
12314;SDS011;23886;46.614;14.276;2023-06-10T00:24:06;9.07;;;8.17;;
12314;SDS011;23886;46.614;14.276;2023-06-10T00:26:36;8.70;;;7.80;;
12314;SDS011;23886;46.614;14.276;2023-06-10T00:29:04;8.93;;;8.07;;
12314;SDS011;23886;46.614;14.276;2023-06-10T00:31:31;8.07;;;7.47;;
12314;SDS011;23886;46.614;14.276;2023-06-10T00:33:59;10.13;;;7.97;;
12314;SDS011;23886;46.614;14.276;2023-06-10T00:36:28;9.00;;;8.10;;
12314;SDS011;23886;46.614;14.276;2023-06-10T00:38:55;9.03;;;8.23;;
12314;SDS011;23886;46.614;14.276;2023-06-10T00:41:22;9.57;;;8.53;;
12314;SDS011;23886;46.614;14.276;2023-06-10T00:43:51;9.27;;;8.47;;
12314;SDS011;23886;46.614;14.276;2023-06-10T00:46:18;8.70;;;7.90;;
12314;SDS011;23886;46.614;14.276;2023-06-10T00:48:46;8.83;;;8.03;;
12314;SDS011;23886;46.614;14.276;2023-06-10T00:51:15;9.43;;;8.50;;
12314;SDS011;23886;46.614;14.276;2023-06-10T00:53:42;8.90;;;8.10;;
12314;SDS011;23886;46.614;14.276;2023-06-10T00:56:11;9.83;;;7.77;;
12314;SDS011;23886;46.614;14.276;2023-06-10T00:58:39;8.47;;;7.57;;
12314;SDS011;23886;46.614;14.276;2023-06-10T01:01:06;10.50;;;7.93;;
12314;SDS011;23886;46.614;14.276;2023-06-10T01:03:35;9.70;;;8.80;;
12314;SDS011;23886;46.614;14.276;2023-06-10T01:06:06;10.40;;;8.77;;
12314;SDS011;23886;46.614;14.276;2023-06-10T01:08:45;10.60;;;9.50;;
12314;SDS011;23886;46.614;14.276;2023-06-10T01:11:19;9.90;;;9.10;;
12314;SDS011;23886;46.614;14.276;2023-06-10T01:13:51;10.20;;;9.27;;
12314;SDS011;23886;46.614;14.276;2023-06-10T01:16:22;12.93;;;8.93;;
12314;SDS011;23886;46.614;14.276;2023-06-10T01:18:50;10.80;;;9.50;;
12314;SDS011;23886;46.614;14.276;2023-06-10T01:21:20;9.80;;;8.57;;
12314;SDS011;23886;46.614;14.276;2023-06-10T01:23:49;9.47;;;8.67;;
12314;SDS011;23886;46.614;14.276;2023-06-10T01:26:17;10.10;;;9.13;;
12314;SDS011;23886;46.614;14.276;2023-06-10T01:28:47;9.83;;;8.90;;
12314;SDS011;23886;46.614;14.276;2023-06-10T01:31:21;9.63;;;8.73;;
12314;SDS011;23886;46.614;14.276;2023-06-10T01:33:59;10.77;;;9.07;;
12314;SDS011;23886;46.614;14.276;2023-06-10T01:36:28;9.30;;;8.40;;
12314;SDS011;23886;46.614;14.276;2023-06-10T01:38:57;9.13;;;8.23;;
12314;SDS011;23886;46.614;14.276;2023-06-10T01:41:26;10.40;;;9.40;;
12314;SDS011;23886;46.614;14.276;2023-06-10T01:43:54;9.43;;;8.17;;
12314;SDS011;23886;46.614;14.276;2023-06-10T01:46:22;10.23;;;9.03;;
12314;SDS011;23886;46.614;14.276;2023-06-10T01:48:49;9.43;;;8.57;;
12314;SDS011;23886;46.614;14.276;2023-06-10T01:51:16;10.43;;;9.33;;
12314;SDS011;23886;46.614;14.276;2023-06-10T01:53:44;9.73;;;8.73;;
12314;SDS011;23886;46.614;14.276;2023-06-10T01:56:11;9.73;;;8.53;;
12314;SDS011;23886;46.614;14.276;2023-06-10T01:58:43;9.07;;;8.27;;
12314;SDS011;23886;46.614;14.276;2023-06-10T02:01:10;9.47;;;8.57;;
12314;SDS011;23886;46.614;14.276;2023-06-10T02:03:37;8.90;;;8.10;;
12314;SDS011;23886;46.614;14.276;2023-06-10T02:06:04;9.93;;;8.40;;
12314;SDS011;23886;46.614;14.276;2023-06-10T02:08:31;9.17;;;8.27;;
12314;SDS011;23886;46.614;14.276;2023-06-10T02:11:00;10.70;;;9.70;;
12314;SDS011;23886;46.614;14.276;2023-06-10T02:13:27;10.67;;;8.50;;
12314;SDS011;23886;46.614;14.276;2023-06-10T02:15:54;9.33;;;8.50;;
12314;SDS011;23886;46.614;14.276;2023-06-10T02:18:22;10.73;;;9.57;;
12314;SDS011;23886;46.614;14.276;2023-06-10T02:20:49;9.53;;;8.63;;
12314;SDS011;23886;46.614;14.276;2023-06-10T02:23:16;9.70;;;8.77;;
12314;SDS011;23886;46.614;14.276;2023-06-10T02:25:43;9.73;;;8.73;;
12314;SDS011;23886;46.614;14.276;2023-06-10T02:28:11;10.93;;;9.07;;
12314;SDS011;23886;46.614;14.276;2023-06-10T02:30:39;9.67;;;8.70;;
12314;SDS011;23886;46.614;14.276;2023-06-10T02:33:06;10.30;;;8.97;;
12314;SDS011;23886;46.614;14.276;2023-06-10T02:35:36;10.70;;;9.13;;
12314;SDS011;23886;46.614;14.276;2023-06-10T02:38:03;12.30;;;8.50;;
12314;SDS011;23886;46.614;14.276;2023-06-10T02:40:30;9.47;;;8.57;;
12314;SDS011;23886;46.614;14.276;2023-06-10T02:42:57;10.40;;;9.40;;
12314;SDS011;23886;46.614;14.276;2023-06-10T02:45:25;10.60;;;9.60;;
12314;SDS011;23886;46.614;14.276;2023-06-10T02:47:53;10.63;;;9.50;;
12314;SDS011;23886;46.614;14.276;2023-06-10T02:50:20;10.80;;;9.53;;
12314;SDS011;23886;46.614;14.276;2023-06-10T02:52:48;9.73;;;8.93;;
12314;SDS011;23886;46.614;14.276;2023-06-10T02:55:15;11.23;;;9.10;;
12314;SDS011;23886;46.614;14.276;2023-06-10T02:57:42;9.80;;;9.00;;
12314;SDS011;23886;46.614;14.276;2023-06-10T03:00:09;9.97;;;9.07;;
12314;SDS011;23886;46.614;14.276;2023-06-10T03:02:40;9.90;;;9.00;;
12314;SDS011;23886;46.614;14.276;2023-06-10T03:05:08;10.13;;;9.13;;
12314;SDS011;23886;46.614;14.276;2023-06-10T03:07:36;11.00;;;8.87;;
12314;SDS011;23886;46.614;14.276;2023-06-10T03:10:03;10.00;;;9.10;;
12314;SDS011;23886;46.614;14.276;2023-06-10T03:12:31;9.77;;;8.97;;
12314;SDS011;23886;46.614;14.276;2023-06-10T03:14:58;10.20;;;9.33;;
12314;SDS011;23886;46.614;14.276;2023-06-10T03:17:25;10.13;;;9.13;;
12314;SDS011;23886;46.614;14.276;2023-06-10T03:19:53;10.87;;;9.77;;
12314;SDS011;23886;46.614;14.276;2023-06-10T03:22:21;10.80;;;9.90;;
12314;SDS011;23886;46.614;14.276;2023-06-10T03:24:48;12.77;;;10.10;;
12314;SDS011;23886;46.614;14.276;2023-06-10T03:27:16;10.00;;;9.00;;
12314;SDS011;23886;46.614;14.276;2023-06-10T03:29:43;10.00;;;9.10;;
12314;SDS011;23886;46.614;14.276;2023-06-10T03:32:10;10.80;;;9.70;;
12314;SDS011;23886;46.614;14.276;2023-06-10T03:34:37;10.30;;;9.30;;
12314;SDS011;23886;46.614;14.276;2023-06-10T03:37:06;10.20;;;9.20;;
12314;SDS011;23886;46.614;14.276;2023-06-10T03:39:33;10.60;;;9.43;;
12314;SDS011;23886;46.614;14.276;2023-06-10T03:42:00;9.27;;;8.37;;
12314;SDS011;23886;46.614;14.276;2023-06-10T03:44:27;9.20;;;8.40;;
12314;SDS011;23886;46.614;14.276;2023-06-10T03:46:54;8.33;;;7.60;;
12314;SDS011;23886;46.614;14.276;2023-06-10T03:49:22;8.73;;;7.93;;
12314;SDS011;23886;46.614;14.276;2023-06-10T03:51:52;9.37;;;8.47;;
12314;SDS011;23886;46.614;14.276;2023-06-10T03:54:20;9.37;;;8.63;;
12314;SDS011;23886;46.614;14.276;2023-06-10T03:56:48;9.70;;;8.73;;
12314;SDS011;23886;46.614;14.276;2023-06-10T03:59:15;9.60;;;8.00;;
12314;SDS011;23886;46.614;14.276;2023-06-10T04:01:42;8.53;;;7.83;;
12314;SDS011;23886;46.614;14.276;2023-06-10T04:04:11;8.63;;;7.80;;
12314;SDS011;23886;46.614;14.276;2023-06-10T04:06:40;7.50;;;6.87;;
12314;SDS011;23886;46.614;14.276;2023-06-10T04:09:08;8.10;;;7.30;;
12314;SDS011;23886;46.614;14.276;2023-06-10T04:11:37;9.40;;;7.67;;
12314;SDS011;23886;46.614;14.276;2023-06-10T04:14:04;8.90;;;7.43;;
12314;SDS011;23886;46.614;14.276;2023-06-10T04:16:31;8.30;;;7.50;;
12314;SDS011;23886;46.614;14.276;2023-06-10T04:18:58;8.00;;;7.20;;
12314;SDS011;23886;46.614;14.276;2023-06-10T04:21:25;8.00;;;7.20;;
12314;SDS011;23886;46.614;14.276;2023-06-10T04:23:53;7.83;;;7.13;;
12314;SDS011;23886;46.614;14.276;2023-06-10T04:26:20;7.57;;;6.87;;
12314;SDS011;23886;46.614;14.276;2023-06-10T04:28:48;7.53;;;6.93;;
12314;SDS011;23886;46.614;14.276;2023-06-10T04:31:15;7.77;;;7.17;;
12314;SDS011;23886;46.614;14.276;2023-06-10T04:33:42;7.50;;;6.90;;
12314;SDS011;23886;46.614;14.276;2023-06-10T04:36:09;8.43;;;7.10;;
12314;SDS011;23886;46.614;14.276;2023-06-10T04:38:36;8.40;;;7.50;;
12314;SDS011;23886;46.614;14.276;2023-06-10T04:41:04;8.13;;;6.97;;
12314;SDS011;23886;46.614;14.276;2023-06-10T04:43:30;7.97;;;7.27;;
12314;SDS011;23886;46.614;14.276;2023-06-10T04:45:59;11.87;;;10.63;;
12314;SDS011;23886;46.614;14.276;2023-06-10T04:48:26;8.67;;;7.97;;
12314;SDS011;23886;46.614;14.276;2023-06-10T04:50:53;7.27;;;6.67;;
12314;SDS011;23886;46.614;14.276;2023-06-10T04:53:21;7.60;;;6.97;;
12314;SDS011;23886;46.614;14.276;2023-06-10T04:55:48;7.63;;;6.87;;
12314;SDS011;23886;46.614;14.276;2023-06-10T04:58:15;8.00;;;6.83;;
12314;SDS011;23886;46.614;14.276;2023-06-10T05:00:42;7.17;;;6.47;;
12314;SDS011;23886;46.614;14.276;2023-06-10T05:03:11;8.23;;;6.40;;
12314;SDS011;23886;46.614;14.276;2023-06-10T05:05:38;7.00;;;6.30;;
12314;SDS011;23886;46.614;14.276;2023-06-10T05:08:05;7.07;;;6.43;;
12314;SDS011;23886;46.614;14.276;2023-06-10T05:10:32;9.57;;;6.53;;
12314;SDS011;23886;46.614;14.276;2023-06-10T05:12:59;7.83;;;6.63;;
12314;SDS011;23886;46.614;14.276;2023-06-10T05:15:26;7.00;;;6.40;;
12314;SDS011;23886;46.614;14.276;2023-06-10T05:17:55;7.17;;;6.40;;
12314;SDS011;23886;46.614;14.276;2023-06-10T05:20:24;6.60;;;6.00;;
12314;SDS011;23886;46.614;14.276;2023-06-10T05:22:53;8.93;;;6.40;;
12314;SDS011;23886;46.614;14.276;2023-06-10T05:25:20;9.50;;;6.43;;
12314;SDS011;23886;46.614;14.276;2023-06-10T05:27:47;7.37;;;6.00;;
12314;SDS011;23886;46.614;14.276;2023-06-10T05:30:14;7.97;;;6.20;;
12314;SDS011;23886;46.614;14.276;2023-06-10T05:32:41;9.13;;;6.73;;
12314;SDS011;23886;46.614;14.276;2023-06-10T05:35:08;8.97;;;6.30;;
12314;SDS011;23886;46.614;14.276;2023-06-10T05:37:37;9.97;;;6.60;;
12314;SDS011;23886;46.614;14.276;2023-06-10T05:40:04;7.17;;;6.43;;
12314;SDS011;23886;46.614;14.276;2023-06-10T05:42:32;8.67;;;6.10;;
12314;SDS011;23886;46.614;14.276;2023-06-10T05:44:59;6.53;;;5.80;;
12314;SDS011;23886;46.614;14.276;2023-06-10T05:47:27;6.63;;;6.03;;
12314;SDS011;23886;46.614;14.276;2023-06-10T05:49:54;9.80;;;6.67;;
12314;SDS011;23886;46.614;14.276;2023-06-10T05:52:21;8.83;;;7.17;;
12314;SDS011;23886;46.614;14.276;2023-06-10T05:54:50;8.33;;;7.53;;
12314;SDS011;23886;46.614;14.276;2023-06-10T05:57:17;7.70;;;6.73;;
12314;SDS011;23886;46.614;14.276;2023-06-10T05:59:44;7.93;;;7.23;;
12314;SDS011;23886;46.614;14.276;2023-06-10T06:02:11;7.43;;;6.80;;
12314;SDS011;23886;46.614;14.276;2023-06-10T06:04:38;8.70;;;7.70;;
12314;SDS011;23886;46.614;14.276;2023-06-10T06:07:05;7.67;;;6.57;;
12314;SDS011;23886;46.614;14.276;2023-06-10T06:09:32;8.07;;;6.67;;
12314;SDS011;23886;46.614;14.276;2023-06-10T06:12:00;8.13;;;7.20;;
12314;SDS011;23886;46.614;14.276;2023-06-10T06:14:30;8.40;;;7.60;;
12314;SDS011;23886;46.614;14.276;2023-06-10T06:16:58;7.37;;;6.67;;
12314;SDS011;23886;46.614;14.276;2023-06-10T06:19:25;8.03;;;7.23;;
12314;SDS011;23886;46.614;14.276;2023-06-10T06:21:52;8.57;;;7.67;;
12314;SDS011;23886;46.614;14.276;2023-06-10T06:24:19;7.60;;;6.70;;
12314;SDS011;23886;46.614;14.276;2023-06-10T06:26:46;10.53;;;7.53;;
12314;SDS011;23886;46.614;14.276;2023-06-10T06:29:14;8.43;;;7.63;;
12314;SDS011;23886;46.614;14.276;2023-06-10T06:31:41;8.03;;;7.30;;
12314;SDS011;23886;46.614;14.276;2023-06-10T06:34:08;8.37;;;7.57;;
12314;SDS011;23886;46.614;14.276;2023-06-10T06:36:35;7.67;;;6.97;;
12314;SDS011;23886;46.614;14.276;2023-06-10T06:39:02;7.23;;;6.63;;
12314;SDS011;23886;46.614;14.276;2023-06-10T06:41:29;8.97;;;6.50;;
12314;SDS011;23886;46.614;14.276;2023-06-10T06:43:56;7.47;;;6.70;;
12314;SDS011;23886;46.614;14.276;2023-06-10T06:46:25;7.20;;;6.53;;
12314;SDS011;23886;46.614;14.276;2023-06-10T06:48:52;7.50;;;6.80;;
12314;SDS011;23886;46.614;14.276;2023-06-10T06:51:19;7.63;;;7.03;;
12314;SDS011;23886;46.614;14.276;2023-06-10T06:53:46;9.50;;;7.00;;
12314;SDS011;23886;46.614;14.276;2023-06-10T06:56:15;7.10;;;6.50;;
12314;SDS011;23886;46.614;14.276;2023-06-10T06:58:42;7.27;;;6.50;;
12314;SDS011;23886;46.614;14.276;2023-06-10T07:01:09;7.87;;;7.13;;
12314;SDS011;23886;46.614;14.276;2023-06-10T07:03:37;8.00;;;7.30;;
12314;SDS011;23886;46.614;14.276;2023-06-10T07:06:04;8.83;;;7.40;;
12314;SDS011;23886;46.614;14.276;2023-06-10T07:08:31;7.80;;;7.20;;
12314;SDS011;23886;46.614;14.276;2023-06-10T07:10:58;8.67;;;7.67;;
12314;SDS011;23886;46.614;14.276;2023-06-10T07:13:25;8.80;;;7.90;;
12314;SDS011;23886;46.614;14.276;2023-06-10T07:15:52;7.53;;;6.83;;
12314;SDS011;23886;46.614;14.276;2023-06-10T07:18:19;8.40;;;7.60;;
12314;SDS011;23886;46.614;14.276;2023-06-10T07:20:48;8.33;;;7.50;;
12314;SDS011;23886;46.614;14.276;2023-06-10T07:23:15;8.30;;;7.50;;
12314;SDS011;23886;46.614;14.276;2023-06-10T07:25:42;8.03;;;7.40;;
12314;SDS011;23886;46.614;14.276;2023-06-10T07:28:09;9.27;;;8.20;;
12314;SDS011;23886;46.614;14.276;2023-06-10T07:30:36;8.40;;;7.60;;
12314;SDS011;23886;46.614;14.276;2023-06-10T07:33:03;8.47;;;7.73;;
12314;SDS011;23886;46.614;14.276;2023-06-10T07:35:32;8.30;;;7.60;;
12314;SDS011;23886;46.614;14.276;2023-06-10T07:38:01;8.10;;;7.40;;
12314;SDS011;23886;46.614;14.276;2023-06-10T07:40:28;8.77;;;8.07;;
12314;SDS011;23886;46.614;14.276;2023-06-10T07:42:55;8.43;;;7.63;;
12314;SDS011;23886;46.614;14.276;2023-06-10T07:45:22;8.83;;;7.97;;
12314;SDS011;23886;46.614;14.276;2023-06-10T07:47:49;8.90;;;8.20;;
12314;SDS011;23886;46.614;14.276;2023-06-10T07:50:16;9.47;;;8.40;;
12314;SDS011;23886;46.614;14.276;2023-06-10T07:52:43;8.60;;;7.80;;
12314;SDS011;23886;46.614;14.276;2023-06-10T07:55:12;9.47;;;8.47;;
12314;SDS011;23886;46.614;14.276;2023-06-10T07:57:39;8.77;;;8.07;;
12314;SDS011;23886;46.614;14.276;2023-06-10T08:00:06;9.97;;;8.83;;
12314;SDS011;23886;46.614;14.276;2023-06-10T08:02:34;9.30;;;8.40;;
12314;SDS011;23886;46.614;14.276;2023-06-10T08:05:01;8.60;;;7.77;;
12314;SDS011;23886;46.614;14.276;2023-06-10T08:07:28;8.30;;;7.50;;
12314;SDS011;23886;46.614;14.276;2023-06-10T08:09:56;9.50;;;8.57;;
12314;SDS011;23886;46.614;14.276;2023-06-10T08:12:24;7.87;;;7.07;;
12314;SDS011;23886;46.614;14.276;2023-06-10T08:14:51;7.60;;;7.00;;
12314;SDS011;23886;46.614;14.276;2023-06-10T08:17:18;8.47;;;7.83;;
12314;SDS011;23886;46.614;14.276;2023-06-10T08:19:45;8.37;;;7.67;;
12314;SDS011;23886;46.614;14.276;2023-06-10T08:22:13;8.63;;;7.83;;
12314;SDS011;23886;46.614;14.276;2023-06-10T08:24:40;8.33;;;7.53;;
12314;SDS011;23886;46.614;14.276;2023-06-10T08:27:07;8.47;;;7.77;;
12314;SDS011;23886;46.614;14.276;2023-06-10T08:29:35;7.90;;;7.20;;
12314;SDS011;23886;46.614;14.276;2023-06-10T08:32:03;8.60;;;7.80;;
12314;SDS011;23886;46.614;14.276;2023-06-10T08:34:32;8.23;;;7.53;;
12314;SDS011;23886;46.614;14.276;2023-06-10T08:37:00;7.83;;;7.17;;
12314;SDS011;23886;46.614;14.276;2023-06-10T08:39:27;8.20;;;7.50;;
12314;SDS011;23886;46.614;14.276;2023-06-10T08:42:00;7.40;;;6.70;;
12314;SDS011;23886;46.614;14.276;2023-06-10T08:44:36;7.50;;;6.80;;
12314;SDS011;23886;46.614;14.276;2023-06-10T08:47:05;7.00;;;6.40;;
12314;SDS011;23886;46.614;14.276;2023-06-10T08:49:41;7.03;;;6.43;;
12314;SDS011;23886;46.614;14.276;2023-06-10T08:52:11;8.00;;;7.33;;
12314;SDS011;23886;46.614;14.276;2023-06-10T08:54:42;7.67;;;6.97;;
12314;SDS011;23886;46.614;14.276;2023-06-10T08:57:12;7.13;;;6.63;;
12314;SDS011;23886;46.614;14.276;2023-06-10T08:59:41;7.90;;;7.30;;
12314;SDS011;23886;46.614;14.276;2023-06-10T09:02:09;8.03;;;7.23;;
12314;SDS011;23886;46.614;14.276;2023-06-10T09:04:36;7.50;;;6.90;;
12314;SDS011;23886;46.614;14.276;2023-06-10T09:07:04;7.80;;;7.10;;
12314;SDS011;23886;46.614;14.276;2023-06-10T09:09:32;7.20;;;6.60;;
12314;SDS011;23886;46.614;14.276;2023-06-10T09:12:01;7.07;;;6.57;;
12314;SDS011;23886;46.614;14.276;2023-06-10T09:14:28;7.23;;;6.63;;
12314;SDS011;23886;46.614;14.276;2023-06-10T09:16:57;6.83;;;6.30;;
12314;SDS011;23886;46.614;14.276;2023-06-10T09:19:24;6.80;;;6.30;;
12314;SDS011;23886;46.614;14.276;2023-06-10T09:21:53;7.30;;;6.67;;
12314;SDS011;23886;46.614;14.276;2023-06-10T09:24:20;6.37;;;5.77;;
12314;SDS011;23886;46.614;14.276;2023-06-10T09:26:48;7.27;;;6.67;;
12314;SDS011;23886;46.614;14.276;2023-06-10T09:29:16;7.20;;;6.60;;
12314;SDS011;23886;46.614;14.276;2023-06-10T09:31:43;8.30;;;7.50;;
12314;SDS011;23886;46.614;14.276;2023-06-10T09:34:13;7.30;;;6.70;;
12314;SDS011;23886;46.614;14.276;2023-06-10T09:36:42;6.97;;;6.37;;
12314;SDS011;23886;46.614;14.276;2023-06-10T09:39:13;6.60;;;6.10;;
12314;SDS011;23886;46.614;14.276;2023-06-10T09:41:42;6.87;;;6.27;;
12314;SDS011;23886;46.614;14.276;2023-06-10T09:44:11;6.90;;;6.40;;
12314;SDS011;23886;46.614;14.276;2023-06-10T09:46:39;6.40;;;5.80;;
12314;SDS011;23886;46.614;14.276;2023-06-10T09:49:07;7.30;;;6.57;;
12314;SDS011;23886;46.614;14.276;2023-06-10T09:51:35;6.40;;;5.90;;
12314;SDS011;23886;46.614;14.276;2023-06-10T09:54:02;6.43;;;5.90;;
12314;SDS011;23886;46.614;14.276;2023-06-10T09:56:33;6.80;;;6.03;;
12314;SDS011;23886;46.614;14.276;2023-06-10T09:59:01;5.77;;;5.37;;
12314;SDS011;23886;46.614;14.276;2023-06-10T10:01:31;5.57;;;5.10;;
12314;SDS011;23886;46.614;14.276;2023-06-10T10:03:59;6.40;;;5.90;;
12314;SDS011;23886;46.614;14.276;2023-06-10T10:06:26;5.77;;;5.27;;
12314;SDS011;23886;46.614;14.276;2023-06-10T10:08:56;5.73;;;5.27;;
12314;SDS011;23886;46.614;14.276;2023-06-10T10:11:23;5.23;;;4.60;;
12314;SDS011;23886;46.614;14.276;2023-06-10T10:13:52;4.73;;;4.33;;
12314;SDS011;23886;46.614;14.276;2023-06-10T10:16:20;5.47;;;4.97;;
12314;SDS011;23886;46.614;14.276;2023-06-10T10:18:51;5.00;;;4.70;;
12314;SDS011;23886;46.614;14.276;2023-06-10T10:21:22;5.07;;;4.67;;
12314;SDS011;23886;46.614;14.276;2023-06-10T10:23:53;5.00;;;4.50;;
12314;SDS011;23886;46.614;14.276;2023-06-10T10:26:24;4.30;;;3.90;;
12314;SDS011;23886;46.614;14.276;2023-06-10T10:29:02;4.83;;;4.43;;
12314;SDS011;23886;46.614;14.276;2023-06-10T10:31:36;4.33;;;3.93;;
12314;SDS011;23886;46.614;14.276;2023-06-10T10:34:07;4.90;;;4.50;;
12314;SDS011;23886;46.614;14.276;2023-06-10T10:36:38;4.57;;;4.28;;
12314;SDS011;23886;46.614;14.276;2023-06-10T10:39:05;4.03;;;3.72;;
12314;SDS011;23886;46.614;14.276;2023-06-10T10:41:34;3.95;;;3.53;;
12314;SDS011;23886;46.614;14.276;2023-06-10T10:44:04;4.20;;;3.80;;
12314;SDS011;23886;46.614;14.276;2023-06-10T10:46:41;4.53;;;4.15;;
12314;SDS011;23886;46.614;14.276;2023-06-10T10:49:08;4.30;;;3.90;;
12314;SDS011;23886;46.614;14.276;2023-06-10T10:51:36;4.90;;;3.88;;
12314;SDS011;23886;46.614;14.276;2023-06-10T10:54:10;3.97;;;3.67;;
12314;SDS011;23886;46.614;14.276;2023-06-10T10:56:39;4.03;;;3.70;;
12314;SDS011;23886;46.614;14.276;2023-06-10T10:59:26;4.10;;;3.80;;
12314;SDS011;23886;46.614;14.276;2023-06-10T11:02:10;4.50;;;4.10;;
12314;SDS011;23886;46.614;14.276;2023-06-10T11:04:44;4.63;;;4.22;;
12314;SDS011;23886;46.614;14.276;2023-06-10T11:07:12;4.10;;;3.70;;
12314;SDS011;23886;46.614;14.276;2023-06-10T11:09:56;4.13;;;3.83;;
12314;SDS011;23886;46.614;14.276;2023-06-10T11:12:26;4.43;;;4.03;;
12314;SDS011;23886;46.614;14.276;2023-06-10T11:15:05;4.22;;;3.90;;
12314;SDS011;23886;46.614;14.276;2023-06-10T11:17:33;3.85;;;3.55;;
12314;SDS011;23886;46.614;14.276;2023-06-10T11:20:00;4.80;;;4.40;;
12314;SDS011;23886;46.614;14.276;2023-06-10T11:22:27;4.32;;;3.95;;
12314;SDS011;23886;46.614;14.276;2023-06-10T11:24:54;4.40;;;4.00;;
12314;SDS011;23886;46.614;14.276;2023-06-10T11:27:25;4.22;;;3.85;;
12314;SDS011;23886;46.614;14.276;2023-06-10T11:30:18;4.47;;;4.10;;
12314;SDS011;23886;46.614;14.276;2023-06-10T11:32:50;4.00;;;3.70;;
12314;SDS011;23886;46.614;14.276;2023-06-10T11:35:19;4.20;;;3.80;;
12314;SDS011;23886;46.614;14.276;2023-06-10T11:37:47;3.88;;;3.58;;
12314;SDS011;23886;46.614;14.276;2023-06-10T11:40:15;3.75;;;3.45;;
12314;SDS011;23886;46.614;14.276;2023-06-10T11:42:43;3.78;;;3.47;;
12314;SDS011;23886;46.614;14.276;2023-06-10T11:45:14;3.97;;;3.58;;
12314;SDS011;23886;46.614;14.276;2023-06-10T11:47:54;4.47;;;4.07;;
12314;SDS011;23886;46.614;14.276;2023-06-10T11:50:29;3.92;;;3.63;;
12314;SDS011;23886;46.614;14.276;2023-06-10T11:52:56;4.55;;;3.72;;
12314;SDS011;23886;46.614;14.276;2023-06-10T11:55:24;3.80;;;3.50;;
12314;SDS011;23886;46.614;14.276;2023-06-10T11:57:53;3.80;;;3.50;;
12314;SDS011;23886;46.614;14.276;2023-06-10T12:00:23;4.28;;;3.97;;
12314;SDS011;23886;46.614;14.276;2023-06-10T12:02:59;4.68;;;4.15;;
12314;SDS011;23886;46.614;14.276;2023-06-10T12:05:26;4.63;;;4.22;;
12314;SDS011;23886;46.614;14.276;2023-06-10T12:08:07;4.13;;;3.67;;
12314;SDS011;23886;46.614;14.276;2023-06-10T12:10:38;4.00;;;3.70;;
12314;SDS011;23886;46.614;14.276;2023-06-10T12:13:08;3.63;;;3.33;;
12314;SDS011;23886;46.614;14.276;2023-06-10T12:15:35;3.42;;;3.22;;
12314;SDS011;23886;46.614;14.276;2023-06-10T12:18:02;3.75;;;3.45;;
12314;SDS011;23886;46.614;14.276;2023-06-10T12:20:30;3.53;;;3.20;;
12314;SDS011;23886;46.614;14.276;2023-06-10T12:22:59;4.95;;;3.30;;
12314;SDS011;23886;46.614;14.276;2023-06-10T12:25:27;3.42;;;3.13;;
12314;SDS011;23886;46.614;14.276;2023-06-10T12:27:55;3.20;;;3.00;;
12314;SDS011;23886;46.614;14.276;2023-06-10T12:30:27;3.65;;;3.35;;
12314;SDS011;23886;46.614;14.276;2023-06-10T12:32:55;3.95;;;3.60;;
12314;SDS011;23886;46.614;14.276;2023-06-10T12:35:22;3.30;;;3.10;;
12314;SDS011;23886;46.614;14.276;2023-06-10T12:37:57;3.40;;;2.78;;
12314;SDS011;23886;46.614;14.276;2023-06-10T12:40:26;3.92;;;3.30;;
12314;SDS011;23886;46.614;14.276;2023-06-10T12:42:54;3.85;;;3.55;;
12314;SDS011;23886;46.614;14.276;2023-06-10T12:45:29;3.45;;;2.90;;
12314;SDS011;23886;46.614;14.276;2023-06-10T12:48:04;3.42;;;3.20;;
12314;SDS011;23886;46.614;14.276;2023-06-10T12:50:34;3.50;;;3.20;;
12314;SDS011;23886;46.614;14.276;2023-06-10T12:53:02;4.05;;;3.63;;
12314;SDS011;23886;46.614;14.276;2023-06-10T12:55:29;3.92;;;3.30;;
12314;SDS011;23886;46.614;14.276;2023-06-10T12:57:56;4.15;;;3.80;;
12314;SDS011;23886;46.614;14.276;2023-06-10T13:00:23;3.58;;;3.13;;
12314;SDS011;23886;46.614;14.276;2023-06-10T13:02:56;3.67;;;3.38;;
12314;SDS011;23886;46.614;14.276;2023-06-10T13:05:25;3.20;;;3.00;;
12314;SDS011;23886;46.614;14.276;2023-06-10T13:07:52;3.53;;;3.22;;
12314;SDS011;23886;46.614;14.276;2023-06-10T13:10:20;3.40;;;3.10;;
12314;SDS011;23886;46.614;14.276;2023-06-10T13:12:47;3.30;;;3.10;;
12314;SDS011;23886;46.614;14.276;2023-06-10T13:15:14;3.90;;;3.60;;
12314;SDS011;23886;46.614;14.276;2023-06-10T13:17:42;3.80;;;3.50;;
12314;SDS011;23886;46.614;14.276;2023-06-10T13:20:12;3.80;;;3.50;;
12314;SDS011;23886;46.614;14.276;2023-06-10T13:22:39;4.15;;;3.75;;
12314;SDS011;23886;46.614;14.276;2023-06-10T13:25:06;3.90;;;3.60;;
12314;SDS011;23886;46.614;14.276;2023-06-10T13:27:33;3.85;;;3.50;;
12314;SDS011;23886;46.614;14.276;2023-06-10T13:30:03;3.80;;;3.50;;
12314;SDS011;23886;46.614;14.276;2023-06-10T13:32:31;3.88;;;3.65;;
12314;SDS011;23886;46.614;14.276;2023-06-10T13:34:58;4.85;;;3.58;;
12314;SDS011;23886;46.614;14.276;2023-06-10T13:37:26;3.63;;;3.30;;
12314;SDS011;23886;46.614;14.276;2023-06-10T13:39:53;3.75;;;3.38;;
12314;SDS011;23886;46.614;14.276;2023-06-10T13:42:21;3.97;;;3.45;;
12314;SDS011;23886;46.614;14.276;2023-06-10T13:44:48;3.30;;;3.00;;
12314;SDS011;23886;46.614;14.276;2023-06-10T13:47:15;3.40;;;3.20;;
12314;SDS011;23886;46.614;14.276;2023-06-10T13:49:42;3.50;;;2.95;;
12314;SDS011;23886;46.614;14.276;2023-06-10T13:52:09;3.40;;;3.10;;
12314;SDS011;23886;46.614;14.276;2023-06-10T13:54:37;3.67;;;3.38;;
12314;SDS011;23886;46.614;14.276;2023-06-10T13:57:05;3.50;;;3.20;;
12314;SDS011;23886;46.614;14.276;2023-06-10T13:59:35;3.80;;;3.33;;
12314;SDS011;23886;46.614;14.276;2023-06-10T14:02:02;3.65;;;3.35;;
12314;SDS011;23886;46.614;14.276;2023-06-10T14:04:29;5.20;;;3.80;;
12314;SDS011;23886;46.614;14.276;2023-06-10T14:06:57;4.57;;;3.78;;
12314;SDS011;23886;46.614;14.276;2023-06-10T14:09:24;7.00;;;3.70;;
12314;SDS011;23886;46.614;14.276;2023-06-10T14:11:53;4.07;;;3.75;;
12314;SDS011;23886;46.614;14.276;2023-06-10T14:14:20;4.10;;;3.80;;
12314;SDS011;23886;46.614;14.276;2023-06-10T14:16:47;6.15;;;3.78;;
12314;SDS011;23886;46.614;14.276;2023-06-10T14:19:14;4.20;;;3.90;;
12314;SDS011;23886;46.614;14.276;2023-06-10T14:21:41;4.20;;;3.60;;
12314;SDS011;23886;46.614;14.276;2023-06-10T14:24:08;4.27;;;3.87;;
12314;SDS011;23886;46.614;14.276;2023-06-10T14:26:35;4.50;;;4.10;;
12314;SDS011;23886;46.614;14.276;2023-06-10T14:29:04;4.70;;;4.40;;
12314;SDS011;23886;46.614;14.276;2023-06-10T14:31:32;4.70;;;4.30;;
12314;SDS011;23886;46.614;14.276;2023-06-10T14:33:59;5.00;;;4.60;;
12314;SDS011;23886;46.614;14.276;2023-06-10T14:36:26;4.90;;;4.50;;
12314;SDS011;23886;46.614;14.276;2023-06-10T14:38:53;4.93;;;4.53;;
12314;SDS011;23886;46.614;14.276;2023-06-10T14:41:20;4.60;;;4.20;;